createdAt,value
2018-05-09T00:00:55.015Z,19.02
2018-05-09T00:01:55.196Z,18.94
2018-05-09T00:02:55.025Z,18.97
2018-05-09T00:03:55.018Z,18.94
2018-05-09T00:04:55.032Z,18.94
2018-05-09T00:05:55.032Z,18.99
2018-05-09T00:06:55.033Z,18.91
2018-05-09T00:07:55.049Z,18.98
2018-05-09T00:08:55.952Z,18.92
2018-05-09T00:09:55.054Z,18.86
2018-05-09T00:10:55.063Z,18.86
2018-05-09T00:11:55.134Z,18.80
2018-05-09T00:12:55.079Z,18.68
2018-05-09T00:13:55.074Z,18.84
2018-05-09T00:14:55.079Z,18.77
2018-05-09T00:15:55.171Z,18.74
2018-05-09T00:16:55.089Z,18.68
2018-05-09T00:17:55.106Z,18.72
2018-05-09T00:18:55.099Z,18.73
2018-05-09T00:19:55.103Z,18.72
2018-05-09T00:20:56.622Z,18.80
2018-05-09T00:21:56.698Z,18.83
2018-05-09T00:22:56.687Z,18.83
2018-05-09T00:23:55.118Z,18.73
2018-05-09T00:24:55.125Z,18.73
2018-05-09T00:25:55.124Z,18.76
2018-05-09T00:26:55.136Z,18.74
2018-05-09T00:27:55.131Z,18.72
2018-05-09T00:28:55.140Z,18.73
2018-05-09T00:29:55.216Z,18.73
2018-05-09T00:30:55.147Z,18.79
2018-05-09T00:31:55.159Z,18.65
2018-05-09T00:32:55.163Z,18.61
2018-05-09T00:33:55.163Z,18.58
2018-05-09T00:34:55.175Z,18.50
2018-05-09T00:35:55.172Z,18.46
2018-05-09T00:36:55.182Z,18.50
2018-05-09T00:37:55.193Z,18.50
2018-05-09T00:38:55.196Z,18.50
2018-05-09T00:39:55.193Z,18.47
2018-05-09T00:40:55.211Z,18.50
2018-05-09T00:41:55.211Z,18.46
2018-05-09T00:42:55.209Z,18.46
2018-05-09T00:43:55.221Z,18.46
2018-05-09T00:44:55.223Z,18.50
2018-05-09T00:45:55.226Z,18.49
2018-05-09T00:46:55.231Z,18.47
2018-05-09T00:47:55.234Z,18.49
2018-05-09T00:48:55.243Z,18.43
2018-05-09T00:49:55.250Z,18.42
2018-05-09T00:50:55.258Z,18.40
2018-05-09T00:51:55.256Z,18.50
2018-05-09T00:52:55.255Z,18.47
2018-05-09T00:53:55.268Z,18.40
2018-05-09T00:54:55.268Z,18.42
2018-05-09T00:55:55.280Z,18.40
2018-05-09T00:56:55.282Z,18.40
2018-05-09T00:57:55.279Z,18.37
2018-05-09T00:58:55.291Z,18.43
2018-05-09T00:59:55.291Z,18.33
2018-05-09T01:00:55.299Z,18.25
2018-05-09T01:01:55.298Z,18.33
2018-05-09T01:02:55.306Z,18.25
2018-05-09T01:03:55.313Z,18.15
2018-05-09T01:04:55.317Z,18.09
2018-05-09T01:05:55.318Z,18.00
2018-05-09T01:06:55.331Z,18.00
2018-05-09T01:07:55.347Z,18.04
2018-05-09T01:08:55.342Z,18.00
2018-05-09T01:09:55.335Z,18.00
2018-05-09T01:10:55.341Z,18.06
2018-05-09T01:11:55.350Z,17.97
2018-05-09T01:12:55.356Z,17.99
2018-05-09T01:13:56.970Z,17.97
2018-05-09T01:14:55.361Z,17.99
2018-05-09T01:15:55.365Z,17.95
2018-05-09T01:16:55.370Z,18.02
2018-05-09T01:17:55.379Z,18.00
2018-05-09T01:18:55.376Z,17.94
2018-05-09T01:19:55.385Z,18.07
2018-05-09T01:20:55.386Z,18.03
2018-05-09T01:21:55.394Z,18.02
2018-05-09T01:22:55.392Z,18.06
2018-05-09T01:23:55.397Z,17.94
2018-05-09T01:24:55.405Z,17.97
2018-05-09T01:25:55.405Z,17.92
2018-05-09T01:26:55.415Z,17.91
2018-05-09T01:27:55.421Z,17.89
2018-05-09T01:28:55.420Z,17.91
2018-05-09T01:29:55.427Z,17.84
2018-05-09T01:30:55.434Z,17.84
2018-05-09T01:31:55.436Z,17.79
2018-05-09T01:32:55.442Z,17.81
2018-05-09T01:33:55.444Z,17.79
2018-05-09T01:34:55.454Z,17.73
2018-05-09T01:35:55.461Z,17.84
2018-05-09T01:36:55.458Z,17.88
2018-05-09T01:37:55.464Z,17.69
2018-05-09T01:38:55.467Z,17.70
2018-05-09T01:39:55.470Z,17.79
2018-05-09T01:40:55.482Z,17.85
2018-05-09T01:41:55.480Z,17.81
2018-05-09T01:42:55.484Z,17.71
2018-05-09T01:43:55.489Z,17.63
2018-05-09T01:44:55.496Z,17.66
2018-05-09T01:45:55.496Z,17.66
2018-05-09T01:46:55.504Z,17.62
2018-05-09T01:47:55.510Z,17.59
2018-05-09T01:48:55.515Z,17.55
2018-05-09T01:49:55.511Z,17.57
2018-05-09T01:50:55.518Z,17.48
2018-05-09T01:51:55.520Z,17.41
2018-05-09T01:52:55.527Z,17.44
2018-05-09T01:53:55.532Z,17.41
2018-05-09T01:54:55.602Z,17.38
2018-05-09T01:55:55.546Z,17.26
2018-05-09T01:56:55.543Z,17.26
2018-05-09T01:57:55.558Z,17.30
2018-05-09T01:58:55.557Z,17.23
2018-05-09T01:59:55.565Z,17.26
2018-05-09T02:00:55.565Z,17.20
2018-05-09T02:01:55.561Z,17.22
2018-05-09T02:02:55.573Z,17.14
2018-05-09T02:03:55.569Z,17.06
2018-05-09T02:04:55.581Z,17.08
2018-05-09T02:05:55.575Z,17.10
2018-05-09T02:06:55.585Z,17.08
2018-05-09T02:07:55.590Z,17.04
2018-05-09T02:08:55.597Z,16.93
2018-05-09T02:09:55.604Z,16.90
2018-05-09T02:10:55.610Z,16.96
2018-05-09T02:11:55.614Z,16.89
2018-05-09T02:12:55.612Z,16.86
2018-05-09T02:13:55.614Z,16.93
2018-05-09T02:14:55.622Z,16.88
2018-05-09T02:15:55.616Z,16.85
2018-05-09T02:16:55.627Z,16.86
2018-05-09T02:17:55.629Z,16.86
2018-05-09T02:18:55.632Z,16.93
2018-05-09T02:19:55.645Z,16.88
2018-05-09T02:20:55.640Z,16.90
2018-05-09T02:21:55.652Z,16.83
2018-05-09T02:22:55.675Z,16.95
2018-05-09T02:23:55.654Z,16.92
2018-05-09T02:24:55.656Z,17.00
2018-05-09T02:25:55.713Z,16.98
2018-05-09T02:26:55.681Z,16.98
2018-05-09T02:27:55.669Z,17.04
2018-05-09T02:28:55.682Z,17.04
2018-05-09T02:29:55.681Z,17.00
2018-05-09T02:30:55.700Z,17.06
2018-05-09T02:31:55.695Z,17.10
2018-05-09T02:32:55.693Z,17.08
2018-05-09T02:33:55.702Z,17.04
2018-05-09T02:34:55.710Z,17.10
2018-05-09T02:35:55.702Z,17.08
2018-05-09T02:36:55.710Z,17.07
2018-05-09T02:37:55.713Z,17.10
2018-05-09T02:38:55.720Z,17.10
2018-05-09T02:39:55.716Z,16.99
2018-05-09T02:40:55.719Z,16.99
2018-05-09T02:41:55.728Z,16.96
2018-05-09T02:42:55.728Z,16.92
2018-05-09T02:43:55.739Z,16.90
2018-05-09T02:44:55.737Z,16.90
2018-05-09T02:45:55.745Z,16.90
2018-05-09T02:46:55.746Z,16.92
2018-05-09T02:47:55.755Z,16.90
2018-05-09T02:48:55.758Z,16.88
2018-05-09T02:49:55.858Z,16.85
2018-05-09T02:50:55.781Z,16.86
2018-05-09T02:51:55.771Z,16.92
2018-05-09T02:52:55.798Z,16.92
2018-05-09T02:53:55.777Z,16.93
2018-05-09T02:54:55.872Z,16.92
2018-05-09T02:55:55.784Z,16.98
2018-05-09T02:56:55.807Z,16.95
2018-05-09T02:57:55.817Z,16.90
2018-05-09T02:58:55.799Z,16.90
2018-05-09T02:59:55.802Z,16.78
2018-05-09T03:00:55.823Z,16.81
2018-05-09T03:01:55.807Z,16.62
2018-05-09T03:02:55.813Z,16.65
2018-05-09T03:03:55.815Z,16.65
2018-05-09T03:04:55.825Z,16.53
2018-05-09T03:05:55.824Z,16.53
2018-05-09T03:06:55.836Z,16.55
2018-05-09T03:07:55.829Z,16.45
2018-05-09T03:08:55.839Z,16.38
2018-05-09T03:09:55.842Z,16.52
2018-05-09T03:10:55.850Z,16.50
2018-05-09T03:11:55.850Z,16.56
2018-05-09T03:12:55.848Z,16.56
2018-05-09T03:13:55.853Z,16.62
2018-05-09T03:14:55.863Z,16.62
2018-05-09T03:15:55.865Z,16.62
2018-05-09T03:16:55.889Z,16.59
2018-05-09T03:17:55.872Z,16.63
2018-05-09T03:18:55.878Z,16.60
2018-05-09T03:19:55.880Z,16.50
2018-05-09T03:20:55.914Z,16.55
2018-05-09T03:21:55.913Z,16.50
2018-05-09T03:22:55.888Z,16.53
2018-05-09T03:23:55.889Z,16.50
2018-05-09T03:24:55.890Z,16.52
2018-05-09T03:25:55.898Z,16.59
2018-05-09T03:26:55.911Z,16.59
2018-05-09T03:27:55.915Z,16.56
2018-05-09T03:28:55.910Z,16.55
2018-05-09T03:29:55.916Z,16.59
2018-05-09T03:30:55.916Z,16.59
2018-05-09T03:31:55.924Z,16.58
2018-05-09T03:32:55.927Z,16.55
2018-05-09T03:33:55.929Z,16.60
2018-05-09T03:34:55.928Z,16.60
2018-05-09T03:35:55.940Z,16.55
2018-05-09T03:36:55.941Z,16.53
2018-05-09T03:37:55.949Z,16.48
2018-05-09T03:38:55.955Z,16.45
2018-05-09T03:39:55.951Z,16.42
2018-05-09T03:40:56.505Z,16.48
2018-05-09T03:41:55.962Z,16.37
2018-05-09T03:42:55.963Z,16.40
2018-05-09T03:43:55.967Z,16.41
2018-05-09T03:44:55.969Z,16.34
2018-05-09T03:45:55.972Z,16.38
2018-05-09T03:46:55.975Z,16.25
2018-05-09T03:47:55.987Z,16.40
2018-05-09T03:48:55.993Z,16.40
2018-05-09T03:49:55.991Z,16.41
2018-05-09T03:50:56.000Z,16.42
2018-05-09T03:51:55.993Z,16.45
2018-05-09T03:52:56.000Z,16.48
2018-05-09T03:53:56.010Z,16.42
2018-05-09T03:54:56.004Z,16.48
2018-05-09T03:55:56.020Z,16.48
2018-05-09T03:56:56.018Z,16.41
2018-05-09T03:57:56.022Z,16.42
2018-05-09T03:58:56.024Z,16.44
2018-05-09T03:59:56.031Z,16.50
2018-05-09T04:00:56.040Z,16.41
2018-05-09T04:01:56.038Z,16.40
2018-05-09T04:02:56.424Z,16.41
2018-05-09T04:03:57.188Z,16.42
2018-05-09T04:04:56.058Z,16.41
2018-05-09T04:05:56.059Z,16.34
2018-05-09T04:06:56.057Z,16.40
2018-05-09T04:07:56.076Z,16.34
2018-05-09T04:08:56.063Z,16.22
2018-05-09T04:09:56.070Z,16.35
2018-05-09T04:10:56.078Z,16.33
2018-05-09T04:11:56.086Z,16.27
2018-05-09T04:12:56.093Z,16.33
2018-05-09T04:13:56.086Z,16.25
2018-05-09T04:14:56.160Z,16.25
2018-05-09T04:15:56.096Z,16.31
2018-05-09T04:16:56.094Z,16.33
2018-05-09T04:17:56.096Z,16.30
2018-05-09T04:18:56.097Z,16.35
2018-05-09T04:19:56.108Z,16.49
2018-05-09T04:20:56.171Z,16.44
2018-05-09T04:21:56.106Z,16.55
2018-05-09T04:22:56.113Z,16.60
2018-05-09T04:23:56.120Z,16.63
2018-05-09T04:24:56.131Z,16.70
2018-05-09T04:25:56.126Z,16.65
2018-05-09T04:26:56.133Z,16.65
2018-05-09T04:27:56.140Z,16.71
2018-05-09T04:28:56.152Z,16.75
2018-05-09T04:29:56.140Z,16.75
2018-05-09T04:30:56.147Z,16.77
2018-05-09T04:31:56.154Z,16.81
2018-05-09T04:32:56.152Z,16.85
2018-05-09T04:33:56.152Z,16.88
2018-05-09T04:34:56.158Z,16.96
2018-05-09T04:35:56.166Z,17.07
2018-05-09T04:36:56.172Z,16.96
2018-05-09T04:37:56.180Z,16.99
2018-05-09T04:38:56.176Z,16.99
2018-05-09T04:39:56.182Z,16.99
2018-05-09T04:40:56.190Z,16.99
2018-05-09T04:41:56.258Z,16.92
2018-05-09T04:42:56.192Z,16.98
2018-05-09T04:43:56.198Z,16.85
2018-05-09T04:44:56.203Z,16.86
2018-05-09T04:45:56.204Z,16.86
2018-05-09T04:46:56.204Z,16.83
2018-05-09T04:47:56.215Z,16.85
2018-05-09T04:48:56.224Z,16.88
2018-05-09T04:49:56.215Z,16.89
2018-05-09T04:50:56.229Z,16.93
2018-05-09T04:51:56.225Z,16.92
2018-05-09T04:52:56.229Z,17.00
2018-05-09T04:53:56.235Z,17.07
2018-05-09T04:54:56.280Z,17.08
2018-05-09T04:55:56.242Z,17.10
2018-05-09T04:56:56.255Z,17.03
2018-05-09T04:57:56.253Z,17.04
2018-05-09T04:58:56.279Z,17.17
2018-05-09T04:59:56.263Z,17.15
2018-05-09T05:00:56.286Z,17.23
2018-05-09T05:01:56.279Z,17.25
2018-05-09T05:02:56.275Z,17.26
2018-05-09T05:03:56.273Z,17.25
2018-05-09T05:04:56.345Z,17.35
2018-05-09T05:05:56.319Z,17.35
2018-05-09T05:06:56.513Z,17.40
2018-05-09T05:07:56.293Z,17.36
2018-05-09T05:08:56.304Z,17.41
2018-05-09T05:09:56.302Z,17.50
2018-05-09T05:10:56.308Z,17.50
2018-05-09T05:11:56.331Z,17.51
2018-05-09T05:12:56.315Z,17.62
2018-05-09T05:13:56.326Z,17.62
2018-05-09T05:14:56.411Z,17.66
2018-05-09T05:15:56.339Z,17.73
2018-05-09T05:16:56.332Z,17.70
2018-05-09T05:17:56.344Z,17.71
2018-05-09T05:18:56.339Z,17.79
2018-05-09T05:19:56.350Z,17.82
2018-05-09T05:20:56.355Z,17.91
2018-05-09T05:21:56.350Z,17.95
2018-05-09T05:22:56.370Z,18.02
2018-05-09T05:23:56.363Z,18.09
2018-05-09T05:24:56.376Z,18.15
2018-05-09T05:25:56.367Z,18.21
2018-05-09T05:26:56.379Z,18.13
2018-05-09T05:27:56.386Z,18.31
2018-05-09T05:28:56.391Z,18.44
2018-05-09T05:29:56.385Z,19.10
2018-05-09T05:30:56.399Z,20.27
2018-05-09T05:31:56.399Z,21.48
2018-05-09T05:32:56.413Z,22.41
2018-05-09T05:33:56.412Z,23.26
2018-05-09T05:34:56.420Z,23.68
2018-05-09T05:35:56.420Z,24.20
2018-05-09T05:36:56.428Z,24.53
2018-05-09T05:37:56.439Z,24.95
2018-05-09T05:38:56.550Z,25.43
2018-05-09T05:39:56.453Z,25.83
2018-05-09T05:40:56.455Z,26.31
2018-05-09T05:41:56.462Z,26.58
2018-05-09T05:42:56.474Z,26.99
2018-05-09T05:43:56.492Z,26.92
2018-05-09T05:44:56.515Z,26.69
2018-05-09T05:45:56.495Z,26.57
2018-05-09T05:46:56.510Z,26.83
2018-05-09T05:47:56.516Z,27.16
2018-05-09T05:48:56.526Z,27.36
2018-05-09T05:49:56.531Z,27.59
2018-05-09T05:50:56.547Z,27.70
2018-05-09T05:51:56.608Z,28.17
2018-05-09T05:52:56.626Z,28.26
2018-05-09T05:53:56.578Z,28.04
2018-05-09T05:54:56.748Z,28.17
2018-05-09T05:55:56.678Z,28.62
2018-05-09T05:56:56.646Z,28.96
2018-05-09T05:57:56.634Z,29.11
2018-05-09T05:58:56.645Z,29.43
2018-05-09T05:59:56.648Z,29.49
2018-05-09T06:00:56.662Z,29.74
2018-05-09T06:01:56.679Z,30.05
2018-05-09T06:02:56.697Z,30.12
2018-05-09T06:03:56.699Z,30.07
2018-05-09T06:04:56.716Z,29.90
2018-05-09T06:05:56.738Z,30.03
2018-05-09T06:06:56.740Z,30.02
2018-05-09T06:07:56.802Z,29.75
2018-05-09T06:08:56.767Z,30.12
2018-05-09T06:09:56.790Z,30.15
2018-05-09T06:10:56.809Z,30.49
2018-05-09T06:11:56.813Z,30.83
2018-05-09T06:12:56.849Z,31.15
2018-05-09T06:13:56.845Z,31.28
2018-05-09T06:14:56.893Z,31.58
2018-05-09T06:15:56.892Z,31.91
2018-05-09T06:16:56.989Z,32.13
2018-05-09T06:17:56.905Z,32.43
2018-05-09T06:18:56.927Z,32.61
2018-05-09T06:19:56.940Z,32.86
2018-05-09T06:20:56.952Z,32.98
2018-05-09T06:21:56.979Z,33.23
2018-05-09T06:22:56.989Z,33.10
2018-05-09T06:23:57.109Z,33.06
2018-05-09T06:24:57.031Z,33.34
2018-05-09T06:25:57.049Z,33.55
2018-05-09T06:26:57.065Z,33.87
2018-05-09T06:27:57.070Z,33.41
2018-05-09T06:28:57.096Z,33.41
2018-05-09T06:29:57.111Z,33.31
2018-05-09T06:30:57.195Z,33.45
2018-05-09T06:31:57.153Z,33.61
2018-05-09T06:32:57.162Z,33.79
2018-05-09T06:33:57.192Z,33.60
2018-05-09T06:34:57.199Z,33.76
2018-05-09T06:35:58.065Z,33.53
2018-05-09T06:36:57.399Z,33.39
2018-05-09T06:37:57.272Z,33.61
2018-05-09T06:38:57.282Z,33.76
2018-05-09T06:39:57.336Z,34.00
2018-05-09T06:40:57.315Z,33.87
2018-05-09T06:41:57.376Z,34.09
2018-05-09T06:42:57.384Z,34.17
2018-05-09T06:43:57.367Z,34.24
2018-05-09T06:44:57.381Z,34.35
2018-05-09T06:45:57.403Z,33.43
2018-05-09T06:46:57.426Z,33.19
2018-05-09T06:47:57.433Z,32.66
2018-05-09T06:48:57.451Z,32.66
2018-05-09T06:49:57.484Z,32.85
2018-05-09T06:50:57.494Z,33.11
2018-05-09T06:51:57.507Z,33.45
2018-05-09T06:52:57.586Z,33.80
2018-05-09T06:53:57.569Z,34.20
2018-05-09T06:54:57.572Z,34.83
2018-05-09T06:55:57.691Z,35.18
2018-05-09T06:56:57.631Z,35.44
2018-05-09T06:57:57.629Z,35.07
2018-05-09T06:58:57.700Z,35.03
2018-05-09T06:59:57.731Z,35.25
2018-05-09T07:00:57.690Z,35.39
2018-05-09T07:01:57.725Z,35.44
2018-05-09T07:02:57.721Z,35.58
2018-05-09T07:03:57.750Z,34.86
2018-05-09T07:04:57.774Z,34.63
2018-05-09T07:05:57.782Z,34.69
2018-05-09T07:06:57.810Z,34.80
2018-05-09T07:07:57.841Z,34.99
2018-05-09T07:08:57.854Z,35.36
2018-05-09T07:09:57.872Z,35.57
2018-05-09T07:10:57.897Z,35.72
2018-05-09T07:11:57.912Z,35.73
2018-05-09T07:12:57.927Z,35.67
2018-05-09T07:13:57.950Z,35.60
2018-05-09T07:14:57.975Z,35.32
2018-05-09T07:15:58.047Z,35.47
2018-05-09T07:16:58.126Z,35.44
2018-05-09T07:17:58.042Z,35.60
2018-05-09T07:18:58.059Z,35.62
2018-05-09T07:19:59.006Z,35.74
2018-05-09T07:20:58.168Z,35.66
2018-05-09T07:21:58.172Z,35.64
2018-05-09T07:22:58.174Z,35.73
2018-05-09T07:23:58.172Z,35.84
2018-05-09T07:24:58.195Z,35.72
2018-05-09T07:25:58.213Z,35.88
2018-05-09T07:26:58.237Z,35.89
2018-05-09T07:27:58.250Z,35.93
2018-05-09T07:28:58.272Z,35.92
2018-05-09T07:29:58.302Z,36.29
2018-05-09T07:30:58.324Z,36.41
2018-05-09T07:31:58.341Z,36.99
2018-05-09T07:32:58.362Z,37.02
2018-05-09T07:33:58.385Z,37.26
2018-05-09T07:34:58.406Z,37.04
2018-05-09T07:35:58.492Z,37.02
2018-05-09T07:36:58.452Z,37.09
2018-05-09T07:37:58.495Z,37.02
2018-05-09T07:38:58.539Z,37.10
2018-05-09T07:39:58.528Z,36.76
2018-05-09T07:40:58.547Z,36.60
2018-05-09T07:41:58.559Z,36.63
2018-05-09T07:42:58.584Z,36.45
2018-05-09T07:43:58.602Z,36.35
2018-05-09T07:44:58.634Z,36.58
2018-05-09T07:45:58.663Z,36.80
2018-05-09T07:46:58.671Z,37.04
2018-05-09T07:47:58.727Z,36.97
2018-05-09T07:48:58.729Z,37.09
2018-05-09T07:49:58.743Z,37.13
2018-05-09T07:50:58.770Z,37.02
2018-05-09T07:51:58.791Z,36.41
2018-05-09T07:52:58.816Z,36.27
2018-05-09T07:53:58.837Z,35.93
2018-05-09T07:54:58.858Z,35.99
2018-05-09T07:55:58.879Z,36.21
2018-05-09T07:56:58.899Z,36.79
2018-05-09T07:57:58.927Z,37.14
2018-05-09T07:58:58.950Z,37.13
2018-05-09T07:59:58.977Z,37.02
2018-05-09T08:00:59.599Z,37.09
2018-05-09T08:01:59.106Z,37.13
2018-05-09T08:02:59.038Z,37.16
2018-05-09T08:03:59.065Z,37.07
2018-05-09T08:04:59.081Z,36.80
2018-05-09T08:05:59.181Z,36.38
2018-05-09T08:06:59.129Z,36.72
2018-05-09T08:07:59.150Z,36.85
2018-05-09T08:08:59.176Z,37.50
2018-05-09T08:09:59.205Z,37.68
2018-05-09T08:10:59.232Z,38.04
2018-05-09T08:11:59.323Z,38.29
2018-05-09T08:12:59.336Z,37.76
2018-05-09T08:13:59.403Z,36.79
2018-05-09T08:14:59.371Z,36.73
2018-05-09T08:15:59.418Z,36.43
2018-05-09T08:16:59.415Z,36.76
2018-05-09T08:17:59.394Z,36.91
2018-05-09T08:18:59.427Z,36.99
2018-05-09T08:19:59.498Z,37.28
2018-05-09T08:20:59.493Z,37.26
2018-05-09T08:21:59.521Z,37.89
2018-05-09T08:22:59.545Z,37.86
2018-05-09T08:23:59.611Z,38.41
2018-05-09T08:24:59.565Z,38.03
2018-05-09T08:25:59.589Z,38.04
2018-05-09T08:26:59.676Z,38.05
2018-05-09T08:27:59.653Z,37.88
2018-05-09T08:28:59.668Z,38.05
2018-05-09T08:29:59.697Z,37.98
2018-05-09T08:30:59.711Z,37.83
2018-05-09T08:31:59.722Z,37.90
2018-05-09T08:32:59.843Z,38.04
2018-05-09T08:33:59.774Z,38.36
2018-05-09T08:34:59.811Z,38.39
2018-05-09T08:35:59.872Z,38.38
2018-05-09T08:36:59.870Z,38.38
2018-05-09T08:37:59.863Z,38.48
2018-05-09T08:38:59.917Z,38.36
2018-05-09T08:39:59.922Z,38.52
2018-05-09T08:40:59.936Z,38.22
2018-05-09T08:41:59.949Z,38.20
2018-05-09T08:42:59.989Z,37.36
2018-05-09T08:44:00.152Z,37.32
2018-05-09T08:45:00.027Z,36.77
2018-05-09T08:46:00.048Z,36.35
2018-05-09T08:47:04.545Z,36.31
2018-05-09T08:48:00.097Z,36.58
2018-05-09T08:49:00.125Z,36.76
2018-05-09T08:50:00.152Z,36.92
2018-05-09T08:51:00.171Z,37.13
2018-05-09T08:52:00.227Z,37.24
2018-05-09T08:53:00.263Z,37.05
2018-05-09T08:54:00.251Z,37.01
2018-05-09T08:55:00.265Z,36.82
2018-05-09T08:56:00.296Z,37.14
2018-05-09T08:57:00.319Z,37.58
2018-05-09T08:58:00.343Z,37.51
2018-05-09T08:59:00.377Z,36.92
2018-05-09T09:00:00.387Z,37.01
2018-05-09T09:01:00.424Z,36.98
2018-05-09T09:02:00.433Z,37.14
2018-05-09T09:03:00.463Z,37.48
2018-05-09T09:04:00.490Z,37.31
2018-05-09T09:05:00.508Z,37.36
2018-05-09T09:06:00.540Z,37.46
2018-05-09T09:07:00.561Z,37.48
2018-05-09T09:08:00.581Z,37.24
2018-05-09T09:09:00.622Z,36.63
2018-05-09T09:10:00.626Z,36.15
2018-05-09T09:11:00.668Z,36.15
2018-05-09T09:12:00.962Z,36.29
2018-05-09T09:13:00.799Z,36.70
2018-05-09T09:14:00.728Z,37.01
2018-05-09T09:15:00.753Z,37.17
2018-05-09T09:16:00.798Z,36.99
2018-05-09T09:17:00.804Z,37.43
2018-05-09T09:18:00.821Z,37.54
2018-05-09T09:19:00.858Z,37.50
2018-05-09T09:20:00.868Z,37.80
2018-05-09T09:21:00.893Z,37.50
2018-05-09T09:22:00.937Z,37.56
2018-05-09T09:23:00.981Z,37.17
2018-05-09T09:24:00.981Z,37.05
2018-05-09T09:25:00.998Z,36.94
2018-05-09T09:26:01.019Z,37.07
2018-05-09T09:27:01.040Z,37.12
2018-05-09T09:28:01.080Z,36.63
2018-05-09T09:29:01.103Z,36.68
2018-05-09T09:30:01.140Z,36.68
2018-05-09T09:31:01.138Z,36.73
2018-05-09T09:32:01.164Z,36.94
2018-05-09T09:33:01.248Z,36.86
2018-05-09T09:34:01.232Z,36.52
2018-05-09T09:35:01.262Z,36.46
2018-05-09T09:36:03.119Z,36.43
2018-05-09T09:37:01.282Z,36.70
2018-05-09T09:38:01.312Z,36.80
2018-05-09T09:39:01.338Z,36.85
2018-05-09T09:40:01.369Z,36.99
2018-05-09T09:41:01.410Z,37.31
2018-05-09T09:42:01.407Z,37.31
2018-05-09T09:43:01.461Z,37.32
2018-05-09T09:44:01.449Z,37.36
2018-05-09T09:45:01.492Z,37.42
2018-05-09T09:46:01.512Z,37.62
2018-05-09T09:47:01.535Z,37.48
2018-05-09T09:48:01.551Z,37.35
2018-05-09T09:49:01.581Z,36.94
2018-05-09T09:50:01.600Z,36.77
2018-05-09T09:51:01.666Z,36.00
2018-05-09T09:52:01.654Z,36.01
2018-05-09T09:53:01.696Z,35.85
2018-05-09T09:54:01.697Z,35.86
2018-05-09T09:55:01.726Z,36.01
2018-05-09T09:56:01.742Z,36.49
2018-05-09T09:57:01.775Z,36.85
2018-05-09T09:58:01.785Z,37.17
2018-05-09T09:59:01.825Z,37.33
2018-05-09T10:00:01.852Z,37.24
2018-05-09T10:01:01.862Z,36.98
2018-05-09T10:02:01.891Z,37.10
2018-05-09T10:03:01.918Z,37.26
2018-05-09T10:04:01.938Z,37.43
2018-05-09T10:05:01.977Z,37.61
2018-05-09T10:06:01.998Z,37.66
2018-05-09T10:07:02.011Z,37.62
2018-05-09T10:08:02.034Z,37.33
2018-05-09T10:09:02.053Z,37.16
2018-05-09T10:10:02.092Z,37.12
2018-05-09T10:11:02.117Z,37.12
2018-05-09T10:12:02.145Z,36.60
2018-05-09T10:13:02.155Z,36.46
2018-05-09T10:14:02.180Z,36.33
2018-05-09T10:15:02.208Z,36.11
2018-05-09T10:16:02.243Z,36.12
2018-05-09T10:17:02.248Z,36.03
2018-05-09T10:18:02.276Z,36.00
2018-05-09T10:19:02.292Z,35.91
2018-05-09T10:20:02.328Z,35.67
2018-05-09T10:21:02.334Z,35.51
2018-05-09T10:22:02.364Z,35.50
2018-05-09T10:23:02.387Z,34.92
2018-05-09T10:24:02.411Z,34.64
2018-05-09T10:25:02.452Z,34.29
2018-05-09T10:26:02.451Z,34.34
2018-05-09T10:27:02.478Z,34.48
2018-05-09T10:28:02.512Z,34.61
2018-05-09T10:29:02.524Z,34.86
2018-05-09T10:30:02.561Z,35.06
2018-05-09T10:31:02.567Z,35.33
2018-05-09T10:32:02.677Z,35.60
2018-05-09T10:33:02.627Z,35.35
2018-05-09T10:34:02.652Z,34.81
2018-05-09T10:35:02.672Z,33.90
2018-05-09T10:36:02.697Z,33.17
2018-05-09T10:37:02.717Z,33.17
2018-05-09T10:38:02.736Z,33.33
2018-05-09T10:39:02.748Z,33.74
2018-05-09T10:40:02.827Z,33.82
2018-05-09T10:41:02.820Z,33.71
2018-05-09T10:42:02.831Z,33.63
2018-05-09T10:43:03.572Z,33.20
2018-05-09T10:44:02.861Z,33.39
2018-05-09T10:45:02.887Z,33.52
2018-05-09T10:46:02.911Z,33.86
2018-05-09T10:47:02.946Z,33.98
2018-05-09T10:48:02.949Z,34.20
2018-05-09T10:49:02.987Z,34.20
2018-05-09T10:50:03.067Z,33.78
2018-05-09T10:51:03.020Z,33.68
2018-05-09T10:52:03.038Z,33.58
2018-05-09T10:53:03.067Z,33.63
2018-05-09T10:54:03.135Z,33.90
2018-05-09T10:55:03.131Z,34.00
2018-05-09T10:56:03.138Z,34.09
2018-05-09T10:57:03.152Z,34.19
2018-05-09T10:58:03.174Z,34.20
2018-05-09T10:59:03.226Z,34.05
2018-05-09T11:00:03.215Z,34.22
2018-05-09T11:01:03.405Z,34.09
2018-05-09T11:02:03.290Z,34.16
2018-05-09T11:03:03.276Z,34.23
2018-05-09T11:04:03.299Z,34.26
2018-05-09T11:05:03.329Z,34.31
2018-05-09T11:06:03.333Z,34.01
2018-05-09T11:07:03.363Z,33.73
2018-05-09T11:08:03.384Z,33.45
2018-05-09T11:09:03.460Z,33.34
2018-05-09T11:10:03.437Z,33.08
2018-05-09T11:11:03.447Z,33.08
2018-05-09T11:12:03.463Z,32.81
2018-05-09T11:13:03.483Z,32.77
2018-05-09T11:14:03.509Z,32.86
2018-05-09T11:15:03.523Z,32.95
2018-05-09T11:16:03.559Z,33.19
2018-05-09T11:17:03.573Z,33.20
2018-05-09T11:18:03.591Z,33.23
2018-05-09T11:19:03.609Z,33.19
2018-05-09T11:20:03.620Z,32.67
2018-05-09T11:21:03.642Z,32.22
2018-05-09T11:22:03.658Z,32.29
2018-05-09T11:23:03.727Z,32.20
2018-05-09T11:24:03.734Z,31.87
2018-05-09T11:25:03.741Z,31.72
2018-05-09T11:26:03.754Z,31.80
2018-05-09T11:27:03.775Z,31.95
2018-05-09T11:28:03.784Z,32.06
2018-05-09T11:29:03.805Z,31.95
2018-05-09T11:30:03.826Z,31.65
2018-05-09T11:31:03.848Z,31.46
2018-05-09T11:32:04.591Z,31.62
2018-05-09T11:33:03.928Z,31.68
2018-05-09T11:34:03.903Z,31.60
2018-05-09T11:35:03.926Z,31.62
2018-05-09T11:36:03.935Z,31.79
2018-05-09T11:37:03.958Z,32.05
2018-05-09T11:38:03.966Z,32.21
2018-05-09T11:39:03.996Z,32.25
2018-05-09T11:40:04.003Z,32.25
2018-05-09T11:41:04.044Z,32.24
2018-05-09T11:42:04.054Z,32.25
2018-05-09T11:43:04.080Z,32.35
2018-05-09T11:44:04.093Z,32.13
2018-05-09T11:45:04.100Z,31.80
2018-05-09T11:46:04.123Z,31.55
2018-05-09T11:47:04.129Z,31.55
2018-05-09T11:48:04.184Z,31.49
2018-05-09T11:49:04.176Z,31.24
2018-05-09T11:50:04.185Z,31.18
2018-05-09T11:51:04.215Z,31.27
2018-05-09T11:52:04.240Z,31.15
2018-05-09T11:53:04.341Z,30.96
2018-05-09T11:54:04.258Z,30.91
2018-05-09T11:55:04.273Z,30.57
2018-05-09T11:56:04.297Z,30.38
2018-05-09T11:57:04.303Z,30.02
2018-05-09T11:58:04.323Z,29.90
2018-05-09T11:59:04.345Z,29.89
2018-05-09T12:00:04.379Z,29.97
2018-05-09T12:01:04.382Z,30.24
2018-05-09T12:02:04.402Z,30.33
2018-05-09T12:03:04.426Z,30.18
2018-05-09T12:04:04.435Z,29.96
2018-05-09T12:05:04.451Z,29.78
2018-05-09T12:06:04.455Z,29.75
2018-05-09T12:07:04.462Z,29.79
2018-05-09T12:08:04.489Z,29.72
2018-05-09T12:09:04.507Z,29.79
2018-05-09T12:10:04.509Z,29.87
2018-05-09T12:11:04.534Z,30.00
2018-05-09T12:12:04.536Z,30.03
2018-05-09T12:13:04.563Z,30.21
2018-05-09T12:14:04.566Z,30.23
2018-05-09T12:15:04.594Z,30.21
2018-05-09T12:16:04.600Z,30.29
2018-05-09T12:17:04.635Z,30.49
2018-05-09T12:18:04.662Z,30.49
2018-05-09T12:19:04.639Z,30.52
2018-05-09T12:20:04.670Z,30.68
2018-05-09T12:21:04.675Z,30.67
2018-05-09T12:22:04.680Z,30.65
2018-05-09T12:23:04.709Z,30.64
2018-05-09T12:24:04.710Z,30.71
2018-05-09T12:25:04.723Z,30.76
2018-05-09T12:26:04.749Z,30.72
2018-05-09T12:27:04.758Z,30.69
2018-05-09T12:28:04.781Z,30.78
2018-05-09T12:29:04.787Z,30.84
2018-05-09T12:30:04.799Z,30.67
2018-05-09T12:31:04.828Z,30.49
2018-05-09T12:32:04.831Z,30.24
2018-05-09T12:33:04.842Z,30.03
2018-05-09T12:34:04.854Z,29.74
2018-05-09T12:35:04.871Z,29.60
2018-05-09T12:36:05.700Z,29.75
2018-05-09T12:37:04.896Z,29.79
2018-05-09T12:38:04.988Z,29.74
2018-05-09T12:39:04.925Z,29.84
2018-05-09T12:40:04.939Z,29.86
2018-05-09T12:41:04.949Z,29.82
2018-05-09T12:42:04.953Z,29.90
2018-05-09T12:43:04.979Z,29.84
2018-05-09T12:44:04.981Z,29.93
2018-05-09T12:45:04.999Z,29.97
2018-05-09T12:46:05.023Z,30.03
2018-05-09T12:47:05.035Z,30.05
2018-05-09T12:48:05.051Z,29.84
2018-05-09T12:49:05.068Z,29.70
2018-05-09T12:50:05.085Z,29.57
2018-05-09T12:51:05.079Z,29.59
2018-05-09T12:52:05.100Z,29.62
2018-05-09T12:53:05.107Z,29.52